Bent Mountain, VA (24059)

12:20 AM EST on February 07, 2016 (GMT -0500)
Slings Gap | | Change Station
CLOSE
Current Station
Personal Weather Station
Location: Bent Mountain, VA
Elevation: 2825 ft
Nearby Weather Stations

Elev 2825 ft 37.16 °N, 80.10 °W | Updated 8 seconds ago

Clear
Clear
33.8 °F
Feels Like 30 °F
N
4.0
Wind Variable Wind from NW
Gusts 5.8 mph

Today
High -- | Low -- °F
--% Chance of Precip.
Yesterday
High -- | Low -- °F
Precip. -- in
Pressure 30.27 in
Visibility 10.0 miles
Clouds Clear
Windchill 30 °F
Dew Point 18 °F
Humidity 51%
Rainfall 0.00 in
Snow Depth Not available.
7:18 AM 5:51 PM
Waning Crescent, 3% visible
METAR KROA 070454Z 35003KT 10SM CLR M01/M07 A3024 RMK AO2 SLP249 T10111067 400611050
Pressure 30.27 in
Visibility 10.0 miles
Clouds Clear
Windchill 30 °F
Dew Point 18 °F
Humidity 51%
Rainfall 0.00 in
Snow Depth Not available.
7:18 AM 5:51 PM
Waning Crescent, 3% visible
METAR KROA 070454Z 35003KT 10SM CLR M01/M07 A3024 RMK AO2 SLP249 T10111067 400611050

10-Day Weather Forecast

Almanac

Astronomy

Feb. 07, 2016 Rise Set
Actual Time
Civil Twilight
Nautical Twilight
Astronomical Twilight
Moon
Length of Visible Light
Length of Day
Tomorrow will be .
, % of the Moon is Illuminated

Today's Extremes

State Highs State Lows

Community

WunderPhotos

Upload Photos

1,891,162 photos uploaded!

WunderBlog® & News

Nearby

Air Quality

  Air Quality AQ Index Pollutant
Not available.

Snow Depth

Station Depth Elevation

Earthquake Activity

City Distance Mag. Time & Date
Minimum magnitude displayed is 2.5.

Coastal Water Temperatures

Place Temperature

Stations

Nearby Weather Stations

Station Location Temp. Windchill Dew Point Humidity Wind Precip. Elev Updated Type
                   

Watches & Warnings

There are currently no watches in effect.